Time;durP1;ratioP1;P1;durP2;ratioP2;P2;SDS_P1;SDS_P2;PMS_P1;PMS_P2;Temp;Humidity;BMP_temperature;BMP_pressure;BME280_temperature;BME280_humidity;BME280_pressure;Samples;Min_cycle;Max_cycle;Signal;HPM_P1;HPM_P2
2022/09/04 00:01:02;;;;;;;8.83;6.40;;;15.70;99.90;;;;;;5102239;28;20836;-61
2022/09/04 00:03:38;;;;;;;6.50;5.33;;;15.60;99.90;;;;;;5097809;28;20895;-61
2022/09/04 00:06:12;;;;;;;7.00;6.40;;;15.60;99.90;;;;;;5103155;28;20793;-60
2022/09/04 00:08:58;;;;;;;6.10;5.50;;;15.70;99.90;;;;;;5105888;28;20464;-61
2022/09/04 00:11:46;;;;;;;6.03;5.50;;;15.70;99.90;;;;;;5097983;28;20550;-60
2022/09/04 00:14:18;;;;;;;9.30;7.10;;;15.60;99.90;;;;;;5095739;28;20517;-60
2022/09/04 00:16:53;;;;;;;8.90;5.73;;;15.50;99.90;;;;;;5092874;28;20440;-60
2022/09/04 00:19:28;;;;;;;5.90;5.30;;;15.60;99.90;;;;;;5085296;28;20471;-60
2022/09/04 00:21:58;;;;;;;6.47;5.87;;;15.60;99.90;;;;;;5088488;28;20480;-60
2022/09/04 00:24:33;;;;;;;5.97;5.47;;;15.60;99.90;;;;;;5094843;28;20449;-59
2022/09/04 00:27:08;;;;;;;6.67;6.10;;;15.40;99.90;;;;;;5090879;28;20471;-60
2022/09/04 00:29:43;;;;;;;6.13;5.63;;;15.40;99.90;;;;;;5092128;28;20539;-60
2022/09/04 00:32:28;;;;;;;6.13;5.63;;;15.40;99.90;;;;;;5096515;28;20438;-60
2022/09/04 00:35:06;;;;;;;6.10;5.60;;;15.50;99.90;;;;;;5096766;28;21020;-60
2022/09/04 00:37:38;;;;;;;6.40;5.80;;;15.50;99.90;;;;;;5089209;28;20521;-60
2022/09/04 00:40:10;;;;;;;6.40;5.80;;;15.50;99.90;;;;;;5096590;28;20555;-60
2022/09/04 00:42:54;;;;;;;6.00;5.50;;;15.40;99.90;;;;;;5094725;28;20498;-60
2022/09/04 00:45:47;;;;;;;6.00;5.30;;;15.40;99.90;;;;;;5091501;28;20456;-60
2022/09/04 00:48:52;;;;;;;6.50;5.90;;;15.50;99.90;;;;;;5087654;28;20471;-60
2022/09/04 00:51:33;;;;;;;6.60;5.07;;;15.50;1.00;;;;;;5097684;28;20450;-60
2022/09/04 00:54:26;;;;;;;5.53;5.03;;;15.40;1.00;;;;;;5099084;28;20591;-60
2022/09/04 00:57:21;;;;;;;6.00;5.20;;;15.40;31.60;;;;;;5112126;28;20483;-60
2022/09/04 01:00:09;;;;;;;5.87;5.37;;;15.30;1.00;;;;;;5094463;28;20551;-60
2022/09/04 01:03:03;;;;;;;6.40;5.60;;;15.30;1.00;;;;;;5118006;28;20451;-60
2022/09/04 01:05:52;;;;;;;6.57;5.90;;;15.30;1.00;;;;;;5098203;28;20547;-60
2022/09/04 01:08:38;;;;;;;6.37;5.77;;;15.20;99.90;;;;;;5100455;28;20471;-60
2022/09/04 01:11:14;;;;;;;6.00;5.50;;;15.20;99.90;;;;;;5104796;28;20450;-58
2022/09/04 01:13:47;;;;;;;6.57;5.97;;;15.20;99.90;;;;;;5111185;28;20462;-60
2022/09/04 01:16:23;;;;;;;6.90;6.37;;;15.20;99.90;;;;;;5110257;28;20776;-60
2022/09/04 01:18:56;;;;;;;5.87;5.37;;;15.10;99.90;;;;;;5105867;28;20550;-60
2022/09/04 01:21:59;;;;;;;6.17;5.40;;;15.10;1.00;;;;;;5101533;28;20453;-60
2022/09/04 01:24:58;;;;;;;6.00;5.50;;;15.10;1.00;;;;;;5091617;28;20449;-60
2022/09/04 01:27:30;;;;;;;6.40;5.80;;;15.10;95.30;;;;;;5099119;28;20903;-60
2022/09/04 01:30:05;;;;;;;6.40;5.30;;;15.10;57.10;;;;;;5100046;28;20463;-60
2022/09/04 01:32:44;;;;;;;7.53;6.20;;;15.10;99.90;;;;;;5100488;28;20460;-60
2022/09/04 01:35:21;;;;;;;7.07;6.37;;;15.10;99.90;;;;;;5098335;28;20541;-57
2022/09/04 01:37:59;;;;;;;6.30;5.80;;;15.10;1.00;;;;;;5109778;28;20471;-60
2022/09/04 01:40:36;;;;;;;6.47;5.97;;;15.10;99.90;;;;;;5120054;28;20464;-60
2022/09/04 01:43:10;;;;;;;7.10;6.43;;;15.10;99.90;;;;;;5120234;28;20818;-60
2022/09/04 01:46:21;;;;;;;6.23;5.63;;;15.10;2.00;;;;;;5107606;28;20465;-58
2022/09/04 01:48:54;;;;;;;6.20;5.70;;;15.10;99.90;;;;;;5019056;28;20575;-60
2022/09/04 01:51:29;;;;;;;5.80;5.30;;;14.90;99.90;;;;;;5026626;28;20974;-60
2022/09/04 01:54:26;;;;;;;8.13;7.37;;;14.90;1.00;;;;;;5055902;28;20558;-60
2022/09/04 01:57:07;;;;;;;6.30;5.80;;;14.90;1.00;;;;;;5097108;28;20749;-60
2022/09/04 01:59:46;;;;;;;5.93;5.13;;;14.80;99.90;;;;;;5111971;28;20462;-60
2022/09/04 02:02:20;;;;;;;6.43;5.93;;;14.90;1.00;;;;;;5109780;28;20975;-60
2022/09/04 02:04:54;;;;;;;7.53;6.27;;;14.90;1.00;;;;;;5119525;28;20823;-60
2022/09/04 02:07:32;;;;;;;6.27;5.67;;;15.00;1.00;;;;;;5099056;28;20514;-59
2022/09/04 02:10:08;;;;;;;7.40;6.80;;;14.90;99.90;;;;;;5098395;28;20594;-59
2022/09/04 02:12:46;;;;;;;7.00;6.20;;;14.90;99.90;;;;;;5099353;28;20889;-60
2022/09/04 02:15:25;;;;;;;6.40;5.90;;;15.00;1.00;;;;;;5099120;28;20928;-59
2022/09/04 02:18:05;;;;;;;6.60;6.00;;;14.90;1.00;;;;;;5098589;28;20442;-60
2022/09/04 02:20:34;;;;;;;6.30;5.70;;;14.90;1.00;;;;;;5098846;28;20866;-60
2022/09/04 02:23:11;;;;;;;6.00;5.43;;;14.90;1.00;;;;;;5098866;28;20555;-57
2022/09/04 02:25:45;;;;;;;6.50;5.90;;;14.90;99.90;;;;;;5099018;28;20467;-58
2022/09/04 02:28:35;;;;;;;6.03;5.53;;;14.80;99.90;;;;;;5098728;28;20819;-60
2022/09/04 02:31:14;;;;;;;6.20;5.70;;;14.80;99.90;;;;;;5078414;28;20461;-60
2022/09/04 02:33:51;;;;;;;6.70;6.10;;;14.80;99.90;;;;;;5078640;28;20569;-60
2022/09/04 02:36:23;;;;;;;6.60;6.00;;;14.80;99.90;;;;;;5078872;28;20961;-60
2022/09/04 02:39:00;;;;;;;6.60;6.00;;;14.80;99.90;;;;;;5108346;28;20505;-60
2022/09/04 02:41:39;;;;;;;6.63;6.03;;;14.80;99.90;;;;;;5098670;28;20546;-59
2022/09/04 02:44:20;;;;;;;7.77;6.13;;;14.70;99.90;;;;;;5099074;28;20456;-60
2022/09/04 02:47:01;;;;;;;6.33;5.73;;;14.80;99.90;;;;;;5099013;28;20503;-59
2022/09/04 02:49:48;;;;;;;7.57;6.97;;;14.80;99.90;;;;;;5097756;28;20547;-59
2022/09/04 02:52:36;;;;;;;7.70;7.00;;;14.70;99.90;;;;;;5078363;28;20842;-60
2022/09/04 02:55:17;;;;;;;7.50;6.80;;;14.70;1.00;;;;;;5109858;28;20487;-60
2022/09/04 02:57:56;;;;;;;7.13;6.53;;;14.60;99.90;;;;;;5118045;28;20434;-57
2022/09/04 03:00:30;;;;;;;6.83;6.30;;;14.60;99.90;;;;;;5082983;28;20543;-60
2022/09/04 03:03:05;;;;;;;6.20;5.70;;;14.60;99.90;;;;;;5096380;28;20605;-60
2022/09/04 03:05:40;;;;;;;7.00;6.40;;;14.60;1.00;;;;;;5098323;28;20456;-59
2022/09/04 03:08:15;;;;;;;7.17;6.47;;;14.70;1.00;;;;;;5077946;28;20456;-59
2022/09/04 03:10:49;;;;;;;6.27;5.67;;;14.60;99.90;;;;;;5095993;28;20909;-57
2022/09/04 03:13:23;;;;;;;6.47;5.87;;;14.60;99.90;;;;;;5111707;28;20564;-59
2022/09/04 03:15:54;;;;;;;6.80;6.20;;;14.60;1.00;;;;;;5105232;28;20890;-58
2022/09/04 03:18:30;;;;;;;6.50;6.00;;;14.60;99.90;;;;;;5118076;28;20435;-59
2022/09/04 03:21:01;;;;;;;7.33;6.63;;;14.50;1.00;;;;;;5097110;28;20562;-60
2022/09/04 03:23:35;;;;;;;7.70;7.10;;;14.50;99.90;;;;;;5097965;28;20472;-59
2022/09/04 03:26:16;;;;;;;7.83;6.27;;;14.50;1.00;;;;;;5098246;28;20877;-59
2022/09/04 03:28:54;;;;;;;7.30;6.60;;;14.50;1.00;;;;;;5097735;28;20456;-60
2022/09/04 03:31:37;;;;;;;6.30;5.80;;;14.40;99.90;;;;;;5097519;28;20540;-59
2022/09/04 03:34:20;;;;;;;7.50;6.80;;;14.40;99.90;;;;;;5097659;28;20911;-60
2022/09/04 03:37:01;;;;;;;7.33;6.63;;;14.40;99.90;;;;;;5097143;28;20435;-59
2022/09/04 03:39:40;;;;;;;6.50;6.00;;;14.40;99.90;;;;;;5094460;28;20919;-59
2022/09/04 03:42:18;;;;;;;8.77;6.83;;;14.40;99.90;;;;;;5097140;28;20530;-60
2022/09/04 03:44:55;;;;;;;7.00;6.40;;;14.40;99.90;;;;;;5097247;28;20886;-59
2022/09/04 03:47:34;;;;;;;7.03;6.43;;;14.50;99.90;;;;;;5097361;28;20571;-60
2022/09/04 03:50:13;;;;;;;7.00;6.30;;;14.60;99.90;;;;;;5096991;28;20888;-59
2022/09/04 03:52:49;;;;;;;6.60;6.10;;;14.60;74.60;;;;;;5082141;28;20519;-60
2022/09/04 03:55:44;;;;;;;8.30;6.70;;;14.60;1.00;;;;;;5097477;28;20582;-60
2022/09/04 03:58:21;;;;;;;7.43;6.70;;;14.60;99.90;;;;;;5097624;28;20740;-60
2022/09/04 04:00:56;;;;;;;20.70;7.00;;;14.40;43.60;;;;;;5096433;28;20901;-60
2022/09/04 04:03:57;;;;;;;7.30;6.60;;;14.40;99.90;;;;;;5097476;28;20796;-60
2022/09/04 04:06:40;;;;;;;7.10;6.50;;;14.40;99.90;;;;;;5097148;28;20525;-58
2022/09/04 04:09:41;;;;;;;7.57;6.70;;;14.40;99.90;;;;;;5111619;28;20614;-60
2022/09/04 04:12:26;;;;;;;7.60;5.83;;;14.30;99.90;;;;;;5079797;28;20469;-60
2022/09/04 04:15:17;;;;;;;7.30;6.70;;;14.30;99.90;;;;;;5097060;28;20582;-60
2022/09/04 04:18:36;;;;;;;7.57;6.87;;;14.30;99.90;;;;;;5096332;28;20461;-58
2022/09/04 04:21:17;;;;;;;8.83;5.87;;;14.30;99.90;;;;;;5033942;28;20441;-60
2022/09/04 04:24:37;;;;;;;6.73;6.13;;;14.30;99.90;;;;;;5032959;28;20465;-59
2022/09/04 04:27:24;;;;;;;8.20;6.50;;;14.20;99.90;;;;;;5048738;28;20454;-60
2022/09/04 04:30:06;;;;;;;6.67;6.07;;;14.20;99.90;;;;;;5055509;28;20765;-60
2022/09/04 04:32:55;;;;;;;8.10;7.37;;;14.20;99.90;;;;;;5057767;28;20454;-60
2022/09/04 04:35:34;;;;;;;7.47;6.87;;;14.20;99.90;;;;;;5055433;28;20560;-60
2022/09/04 04:38:16;;;;;;;7.60;7.00;;;14.20;99.90;;;;;;5068391;28;20479;-60
2022/09/04 04:41:25;;;;;;;7.80;7.03;;;14.20;99.90;;;;;;5100309;28;20467;-59
2022/09/04 04:44:06;;;;;;;7.77;7.17;;;14.20;99.90;;;;;;5100433;28;20731;-59
2022/09/04 04:46:52;;;;;;;8.93;8.20;;;14.30;99.90;;;;;;5099657;28;20493;-59
2022/09/04 04:49:40;;;;;;;7.30;6.70;;;14.50;99.90;;;;;;5101341;28;20505;-60
2022/09/04 04:52:33;;;;;;;7.43;6.77;;;14.40;99.90;;;;;;5095916;28;20582;-59
2022/09/04 04:55:11;;;;;;;8.07;7.27;;;14.40;99.90;;;;;;5093495;28;20488;-58
2022/09/04 04:57:58;;;;;;;7.93;7.13;;;14.40;99.90;;;;;;5116784;28;20506;-59
2022/09/04 05:00:35;;;;;;;8.00;7.30;;;14.40;99.90;;;;;;5113511;28;20469;-53
2022/09/04 05:03:14;;;;;;;8.10;7.30;;;14.40;99.90;;;;;;5112514;28;20487;-58
2022/09/04 05:05:54;;;;;;;8.73;6.83;;;14.50;99.90;;;;;;5100992;28;20454;-59
2022/09/04 05:08:33;;;;;;;9.17;8.37;;;14.50;99.90;;;;;;5100139;28;20474;-55
2022/09/04 05:11:08;;;;;;;7.93;7.23;;;14.60;99.90;;;;;;5100474;28;20554;-56
2022/09/04 05:13:45;;;;;;;9.73;7.23;;;14.50;99.90;;;;;;5100143;28;20435;-59
2022/09/04 05:16:20;;;;;;;8.03;7.40;;;14.50;99.90;;;;;;5100060;28;20557;-57
2022/09/04 05:18:55;;;;;;;8.00;7.30;;;14.50;99.90;;;;;;5098853;28;20556;-57
2022/09/04 05:21:30;;;;;;;8.30;7.60;;;14.50;99.90;;;;;;5099964;28;20552;-59
2022/09/04 05:24:01;;;;;;;6.77;6.17;;;14.50;99.90;;;;;;5099879;28;20551;-58
2022/09/04 05:26:48;;;;;;;10.83;7.17;;;14.60;99.90;;;;;;5100152;28;20929;-59
2022/09/04 05:29:22;;;;;;;8.07;7.33;;;14.70;99.90;;;;;;5099853;28;20563;-52
2022/09/04 05:31:56;;;;;;;7.60;7.00;;;14.70;99.90;;;;;;5099698;28;20554;-58
2022/09/04 05:34:33;;;;;;;7.33;6.73;;;14.70;99.90;;;;;;5096897;28;20500;-58
2022/09/04 05:37:13;;;;;;;8.90;8.20;;;14.80;99.90;;;;;;5094568;28;20452;-55
2022/09/04 05:39:59;;;;;;;7.97;7.27;;;14.90;99.90;;;;;;5095151;28;20475;-59
2022/09/04 05:42:44;;;;;;;7.73;7.03;;;15.00;99.90;;;;;;5096358;28;20498;-58
2022/09/04 05:45:23;;;;;;;8.50;7.80;;;15.10;99.90;;;;;;5097194;28;20513;-59
2022/09/04 05:48:04;;;;;;;8.13;7.33;;;15.10;99.90;;;;;;5097422;28;20551;-59
2022/09/04 05:50:59;;;;;;;8.20;7.50;;;15.20;99.90;;;;;;5095035;28;20472;-59
2022/09/04 05:54:14;;;;;;;8.10;7.40;;;15.30;99.90;;;;;;5098992;28;20468;-56
2022/09/04 05:57:26;;;;;;;9.30;7.80;;;15.30;99.90;;;;;;5097767;28;20503;-54
2022/09/04 06:00:11;;;;;;;7.50;6.80;;;15.50;99.90;;;;;;5056311;28;20427;-58
2022/09/04 06:03:15;;;;;;;8.13;7.47;;;15.50;99.90;;;;;;5099179;28;20568;-58
2022/09/04 06:06:22;;;;;;;7.27;6.63;;;15.70;99.90;;;;;;5092571;28;20460;-58
2022/09/04 06:09:11;;;;;;;7.67;6.83;;;15.80;99.90;;;;;;5057094;28;20463;-58
2022/09/04 06:11:58;;;;;;;7.93;7.20;;;16.10;99.90;;;;;;5094889;28;20539;-56
2022/09/04 06:14:57;;;;;;;8.17;7.47;;;16.20;99.90;;;;;;5110913;28;20563;-56
2022/09/04 06:17:40;;;;;;;11.60;7.80;;;16.30;99.90;;;;;;5100289;28;20492;-57
2022/09/04 06:20:37;;;;;;;8.17;7.50;;;16.50;99.90;;;;;;5098602;28;20490;-58
2022/09/04 06:23:20;;;;;;;7.53;6.90;;;16.70;99.90;;;;;;5094315;28;20848;-55
2022/09/04 06:26:10;;;;;;;9.23;7.87;;;16.80;99.90;;;;;;5096337;28;20487;-59
2022/09/04 06:28:56;;;;;;;7.20;6.60;;;17.10;99.90;;;;;;5092303;28;20468;-59
2022/09/04 06:31:53;;;;;;;8.37;7.67;;;17.40;99.90;;;;;;5094455;28;20453;-59
2022/09/04 06:34:36;;;;;;;5.90;5.40;;;17.50;1.00;;;;;;5094710;28;20454;-58
2022/09/04 06:37:21;;;;;;;6.60;6.00;;;17.70;1.00;;;;;;5095672;28;20495;-59
2022/09/04 06:40:16;;;;;;;6.73;5.93;;;17.80;1.00;;;;;;5102509;28;20566;-59
2022/09/04 06:43:03;;;;;;;6.80;6.20;;;17.90;1.00;;;;;;5096774;28;20563;-59
2022/09/04 06:45:43;;;;;;;6.40;5.80;;;18.10;1.00;;;;;;5095178;28;20448;-57
2022/09/04 06:48:22;;;;;;;6.73;6.23;;;18.30;1.00;;;;;;5096687;28;20541;-53
2022/09/04 06:51:06;;;;;;;6.97;6.37;;;18.60;1.00;;;;;;5101716;28;20472;-57
2022/09/04 06:53:45;;;;;;;6.07;5.57;;;18.60;99.90;;;;;;5093924;28;20487;-54
2022/09/04 06:56:34;;;;;;;6.37;5.77;;;18.60;47.10;;;;;;5118150;28;20487;-54
2022/09/04 06:59:26;;;;;;;6.60;6.00;;;18.80;1.00;;;;;;5076073;28;20982;-53
2022/09/04 07:02:07;;;;;;;6.30;5.80;;;19.10;80.60;;;;;;5077059;28;20501;-56
2022/09/04 07:04:48;;;;;;;6.57;5.97;;;19.30;44.60;;;;;;5088826;28;20957;-54
2022/09/04 07:07:23;;;;;;;6.37;5.87;;;19.60;1.00;;;;;;5091854;28;20452;-53
2022/09/04 07:09:58;;;;;;;6.73;6.20;;;19.90;1.00;;;;;;5085057;28;20501;-51
2022/09/04 07:13:00;;;;;;;7.47;6.40;;;20.20;1.00;;;;;;5096162;28;20460;-49
2022/09/04 07:16:09;;;;;;;5.90;5.40;;;20.40;1.00;;;;;;5160400;27;20261;-54
2022/09/04 07:19:07;;;;;;;6.13;5.47;;;20.60;1.00;;;;;;5149466;27;20424;-54
2022/09/04 07:21:42;;;;;;;5.30;4.80;;;20.80;1.00;;;;;;5146876;27;20484;-56
2022/09/04 07:24:34;;;;;;;5.13;4.70;;;21.00;1.00;;;;;;5150961;27;20441;-56
2022/09/04 07:27:15;;;;;;;5.30;4.80;;;21.10;99.90;;;;;;5152998;27;20453;-54
2022/09/04 07:29:50;;;;;;;6.10;5.47;;;21.30;1.00;;;;;;5153430;27;20462;-57
2022/09/04 07:32:22;;;;;;;5.50;5.00;;;21.50;99.90;;;;;;5151075;27;20747;-54
2022/09/04 07:34:59;;;;;;;5.40;4.90;;;21.60;99.90;;;;;;5140740;27;20581;-58
2022/09/04 07:37:35;;;;;;;4.93;4.50;;;21.80;99.90;;;;;;5149075;27;20548;-60
2022/09/04 07:40:10;;;;;;;4.80;4.40;;;22.10;99.90;;;;;;5154272;27;20514;-56
2022/09/04 07:42:43;;;;;;;4.80;4.40;;;22.20;99.90;;;;;;5153881;27;20822;-60
2022/09/04 07:45:22;;;;;;;4.23;3.80;;;22.40;99.90;;;;;;5144880;27;20854;-60
2022/09/04 07:48:01;;;;;;;5.00;4.60;;;22.50;99.90;;;;;;5134888;28;20771;-61
2022/09/04 07:50:39;;;;;;;5.37;4.97;;;22.70;99.90;;;;;;5151361;27;20548;-61
2022/09/04 07:53:23;;;;;;;4.63;4.23;;;22.80;99.90;;;;;;5155427;27;20465;-62
2022/09/04 07:55:52;;;;;;;6.40;5.37;;;22.90;99.90;;;;;;5144830;27;20465;-62
2022/09/04 07:59:07;;;;;;;4.53;4.13;;;23.10;99.90;;;;;;5134989;28;20875;-63
2022/09/04 08:01:52;;;;;;;4.50;4.10;;;23.40;99.90;;;;;;5047931;28;20466;-63
2022/09/04 08:04:50;;;;;;;4.60;4.20;;;23.60;99.90;;;;;;5118814;27;20465;-64
2022/09/04 08:07:28;;;;;;;3.97;3.67;;;23.70;99.90;;;;;;5150986;27;20468;-63
2022/09/04 08:10:29;;;;;;;4.00;3.70;;;23.80;99.90;;;;;;5134321;27;20468;-64
2022/09/04 08:13:41;;;;;;;3.80;3.50;;;24.00;99.90;;;;;;5134451;28;20849;-64
2022/09/04 08:16:20;;;;;;;3.97;3.67;;;24.30;99.90;;;;;;5132874;27;20541;-64
2022/09/04 08:19:11;;;;;;;4.00;3.50;;;24.60;99.90;;;;;;5134267;28;20866;-64
2022/09/04 08:21:42;;;;;;;4.23;3.83;;;24.70;99.90;;;;;;5135352;27;20597;-64
2022/09/04 08:24:42;;;;;;;4.20;3.80;;;24.70;99.90;;;;;;5134305;27;20835;-63
2022/09/04 08:27:23;;;;;;;3.30;3.00;;;24.90;99.90;;;;;;5085203;27;20459;-64
2022/09/04 08:30:06;;;;;;;3.60;3.27;;;24.70;99.90;;;;;;5141207;27;20504;-63
2022/09/04 08:33:13;;;;;;;6.80;3.03;;;25.10;99.90;;;;;;5136951;27;20994;-63
2022/09/04 08:35:52;;;;;;;3.20;3.00;;;25.50;99.90;;;;;;5125966;27;20491;-63
2022/09/04 08:38:54;;;;;;;3.53;3.23;;;25.80;99.90;;;;;;5120781;28;20463;-64
2022/09/04 08:42:00;;;;;;;3.43;3.13;;;25.70;99.90;;;;;;5105824;28;20467;-63
2022/09/04 08:45:03;;;;;;;3.70;3.40;;;25.80;99.90;;;;;;5119539;28;20497;-63
2022/09/04 08:47:57;;;;;;;3.97;3.67;;;25.10;99.90;;;;;;5121604;27;20906;-63
2022/09/04 08:51:00;;;;;;;4.40;4.07;;;25.60;99.90;;;;;;5121736;27;20557;-63
2022/09/04 08:54:02;;;;;;;3.80;3.47;;;26.20;99.90;;;;;;5088638;28;20899;-63
2022/09/04 08:56:37;;;;;;;3.57;3.27;;;26.70;99.90;;;;;;5119715;27;20455;-63
2022/09/04 08:59:45;;;;;;;3.90;2.90;;;26.80;99.90;;;;;;5118552;28;20520;-63
2022/09/04 09:02:52;;;;;;;3.90;3.50;;;27.20;99.90;;;;;;5103036;28;20754;-62
2022/09/04 09:06:00;;;;;;;3.50;3.20;;;27.30;99.90;;;;;;5119453;28;20830;-62
2022/09/04 09:09:04;;;;;;;3.77;3.47;;;27.30;99.90;;;;;;5119839;28;20494;-62
2022/09/04 09:12:08;;;;;;;4.43;3.40;;;27.50;99.90;;;;;;5103207;27;20458;-62
2022/09/04 09:15:00;;;;;;;3.53;3.23;;;27.90;99.90;;;;;;5138006;27;20503;-62
2022/09/04 09:17:37;;;;;;;3.63;3.33;;;28.00;99.90;;;;;;5127785;27;20439;-62
2022/09/04 09:20:27;;;;;;;3.30;3.00;;;28.00;99.90;;;;;;5139987;27;20458;-62
2022/09/04 09:23:17;;;;;;;3.70;3.40;;;27.90;99.90;;;;;;5139904;27;20450;-62
2022/09/04 09:25:51;;;;;;;4.07;3.73;;;28.10;99.90;;;;;;5139952;27;20523;-62
2022/09/04 09:29:02;;;;;;;3.80;3.50;;;28.00;99.90;;;;;;5122915;27;20459;-61
2022/09/04 09:32:17;;;;;;;3.40;3.17;;;28.30;99.90;;;;;;5119387;28;20482;-62
2022/09/04 09:35:23;;;;;;;3.43;3.13;;;28.50;99.90;;;;;;5113983;28;20491;-60
2022/09/04 09:38:23;;;;;;;3.97;3.57;;;28.50;99.90;;;;;;5124641;27;20519;-59
2022/09/04 09:41:18;;;;;;;4.13;3.47;;;28.50;99.90;;;;;;5139608;27;20537;-59
2022/09/04 09:44:17;;;;;;;5.90;3.60;;;28.90;99.90;;;;;;5139683;27;20469;-59
2022/09/04 09:47:45;;;;;;;3.50;3.20;;;29.00;99.90;;;;;;5139291;27;20499;-59
2022/09/04 09:50:48;;;;;;;3.50;3.20;;;29.60;99.90;;;;;;5073836;28;20544;-59
2022/09/04 09:53:51;;;;;;;3.53;3.27;;;29.60;99.90;;;;;;5062160;28;20432;-59
2022/09/04 09:57:01;;;;;;;3.73;3.30;;;29.30;99.90;;;;;;5062900;28;20510;-59
2022/09/04 10:00:07;;;;;;;4.03;3.63;;;28.30;99.90;;;;;;5073286;28;20910;-59
2022/09/04 10:03:08;;;;;;;4.33;4.03;;;28.40;99.90;;;;;;5134132;27;20467;-59
2022/09/04 10:06:14;;;;;;;3.77;3.40;;;28.40;99.90;;;;;;5139188;27;20460;-59
2022/09/04 10:09:36;;;;;;;4.73;3.27;;;28.60;99.90;;;;;;5102658;28;20817;-59
2022/09/04 10:12:40;;;;;;;3.80;3.40;;;28.80;99.90;;;;;;5116772;28;20783;-59
2022/09/04 10:15:33;;;;;;;3.40;3.10;;;29.60;99.90;;;;;;5117592;28;20568;-59
2022/09/04 10:18:33;;;;;;;3.37;3.17;;;30.10;99.90;;;;;;5125310;27;20550;-59
2022/09/04 10:21:50;;;;;;;3.40;3.10;;;30.00;99.90;;;;;;5118735;27;20516;-58
2022/09/04 10:24:42;;;;;;;3.03;2.83;;;30.40;99.90;;;;;;5129909;27;20454;-59
2022/09/04 10:27:58;;;;;;;3.83;3.50;;;30.40;99.90;;;;;;5134896;27;20451;-59
2022/09/04 10:30:29;;;;;;;3.93;3.63;;;30.90;99.90;;;;;;5046002;28;20549;-59
2022/09/04 10:33:15;;;;;;;3.20;3.00;;;30.70;99.90;;;;;;5119178;28;20554;-58
2022/09/04 10:35:58;;;;;;;4.03;2.97;;;30.80;99.90;;;;;;5118410;28;20611;-58
2022/09/04 10:41:44;;;;;;;3.07;2.87;;;30.70;99.90;;;;;;5139363;27;20412;-58
2022/09/04 10:44:27;;;;;;;3.30;3.00;;;30.20;99.90;;;;;;5107073;28;20927;-59
2022/09/04 10:47:07;;;;;;;3.83;3.40;;;29.40;99.90;;;;;;5117494;28;20463;-58
2022/09/04 10:49:54;;;;;;;3.83;3.40;;;29.00;99.90;;;;;;5118392;27;20517;-58
2022/09/04 10:53:07;;;;;;;3.53;3.23;;;28.50;99.90;;;;;;5118351;28;20771;-58
2022/09/04 10:55:52;;;;;;;4.10;3.80;;;27.50;99.90;;;;;;5117788;28;20483;-57
2022/09/04 10:58:53;;;;;;;4.00;3.60;;;27.10;99.90;;;;;;5118787;27;20475;-57
2022/09/04 11:02:02;;;;;;;4.73;4.17;;;26.60;99.90;;;;;;5117630;28;20466;-57
2022/09/04 11:05:19;;;;;;;3.37;3.07;;;26.30;99.90;;;;;;5118425;28;20927;-55
2022/09/04 11:08:35;;;;;;;3.70;3.07;;;26.00;99.90;;;;;;5117748;28;20462;-57
2022/09/04 11:11:44;;;;;;;3.70;3.40;;;25.80;99.90;;;;;;5117675;28;20466;-57
2022/09/04 11:14:34;;;;;;;4.17;3.87;;;25.80;99.90;;;;;;5126781;28;20565;-55
2022/09/04 11:17:32;;;;;;;3.90;3.60;;;25.70;99.90;;;;;;5137555;28;20455;-58
2022/09/04 11:20:38;;;;;;;4.70;3.00;;;26.50;99.90;;;;;;5132977;28;20448;-57
2022/09/04 11:23:48;;;;;;;3.63;3.33;;;28.00;99.90;;;;;;5128897;27;20857;-58
2022/09/04 11:26:46;;;;;;;3.87;3.57;;;28.70;99.90;;;;;;5085290;28;20444;-57
2022/09/04 11:29:39;;;;;;;3.63;3.30;;;28.40;99.90;;;;;;5115423;28;20498;-57
2022/09/04 11:32:32;;;;;;;3.27;3.07;;;28.50;99.90;;;;;;5122634;28;20922;-55
2022/09/04 11:35:59;;;;;;;3.20;2.90;;;29.40;99.90;;;;;;5129643;28;20826;-58
2022/09/04 11:39:00;;;;;;;3.53;3.23;;;30.40;99.90;;;;;;5085264;28;20455;-58
2022/09/04 11:41:47;;;;;;;3.60;3.30;;;30.80;99.90;;;;;;5116072;28;20571;-58
2022/09/04 11:44:45;;;;;;;3.73;2.83;;;31.00;99.90;;;;;;5116417;28;20433;-58
2022/09/04 11:47:58;;;;;;;6.40;3.37;;;30.60;99.90;;;;;;5115147;28;20796;-57
2022/09/04 11:50:56;;;;;;;3.30;3.10;;;30.10;99.90;;;;;;5115520;28;20434;-58
2022/09/04 11:53:41;;;;;;;3.30;3.10;;;30.20;99.90;;;;;;5132556;28;20483;-58
2022/09/04 11:56:28;;;;;;;3.60;3.30;;;30.80;99.90;;;;;;5133871;28;20486;-57
2022/09/04 11:59:15;;;;;;;3.23;2.93;;;31.30;99.90;;;;;;5136815;28;20875;-58
2022/09/04 12:02:07;;;;;;;3.43;3.13;;;31.80;99.90;;;;;;5133034;27;20574;-58
2022/09/04 12:04:48;;;;;;;3.80;3.50;;;31.80;99.90;;;;;;5135194;27;20443;-58
2022/09/04 12:07:30;;;;;;;3.60;3.40;;;31.70;99.90;;;;;;5141558;27;20487;-58
2022/09/04 12:10:31;;;;;;;3.00;2.80;;;31.70;99.90;;;;;;5141568;27;20461;-57
2022/09/04 12:13:36;;;;;;;5.17;3.70;;;31.00;99.90;;;;;;5133501;27;20447;-54
2022/09/04 12:16:43;;;;;;;3.87;3.57;;;30.00;99.90;;;;;;5131693;27;20482;-56
2022/09/04 12:19:25;;;;;;;3.60;3.33;;;29.10;99.90;;;;;;5140330;27;20440;-54
2022/09/04 12:22:29;;;;;;;3.50;3.20;;;28.70;99.90;;;;;;5139902;27;20465;-57
2022/09/04 12:25:23;;;;;;;4.67;3.50;;;28.70;99.90;;;;;;5129285;27;20425;-53
2022/09/04 12:28:33;;;;;;;3.50;3.20;;;28.50;99.90;;;;;;5140796;27;20459;-58
2022/09/04 12:31:16;;;;;;;2.97;2.73;;;28.90;99.90;;;;;;5140860;27;20783;-57
2022/09/04 12:34:07;;;;;;;3.73;3.43;;;28.80;99.90;;;;;;5139233;27;20791;-57
2022/09/04 12:36:59;;;;;;;3.60;3.20;;;28.60;99.90;;;;;;5139482;27;20573;-57
2022/09/04 12:40:04;;;;;;;3.73;3.37;;;28.80;99.90;;;;;;5122247;27;20910;-58
2022/09/04 12:42:37;;;;;;;6.10;4.17;;;30.00;99.90;;;;;;5140474;27;20560;-56
2022/09/04 12:45:19;;;;;;;3.20;2.90;;;29.90;99.90;;;;;;5122648;27;20434;-57
2022/09/04 12:47:57;;;;;;;4.07;3.77;;;29.60;99.90;;;;;;5126146;27;20457;-55
2022/09/04 12:50:35;;;;;;;5.10;4.17;;;29.40;99.90;;;;;;5139605;27;20447;-56
2022/09/04 12:53:31;;;;;;;4.07;3.67;;;28.90;99.90;;;;;;5139503;27;20462;-53
2022/09/04 12:56:14;;;;;;;3.90;3.53;;;28.30;99.90;;;;;;5137117;27;20486;-56
2022/09/04 12:58:58;;;;;;;5.00;4.10;;;28.10;99.90;;;;;;5130749;27;20434;-57
2022/09/04 13:01:37;;;;;;;4.00;3.70;;;27.70;99.90;;;;;;5128113;27;20474;-57
2022/09/04 13:04:14;;;;;;;4.23;3.83;;;27.60;99.90;;;;;;5121609;27;20511;-56
2022/09/04 13:06:58;;;;;;;4.10;3.80;;;27.70;99.90;;;;;;5124782;27;20462;-56
2022/09/04 13:09:32;;;;;;;3.93;3.60;;;27.70;99.90;;;;;;5124118;27;20926;-57
2022/09/04 13:12:14;;;;;;;4.53;4.23;;;27.90;99.90;;;;;;5137005;27;20469;-56
2022/09/04 13:15:08;;;;;;;3.73;3.43;;;28.00;99.90;;;;;;5133730;27;21011;-55
2022/09/04 13:17:47;;;;;;;4.63;3.70;;;27.80;99.90;;;;;;5138136;27;20742;-56
2022/09/04 13:20:23;;;;;;;4.10;3.80;;;27.80;99.90;;;;;;5124975;27;20908;-56
2022/09/04 13:23:04;;;;;;;3.63;3.30;;;28.20;99.90;;;;;;5130671;27;20921;-54
2022/09/04 13:25:43;;;;;;;4.47;4.07;;;28.30;99.90;;;;;;5136695;27;20879;-54
2022/09/04 13:28:25;;;;;;;4.67;4.30;;;28.40;99.90;;;;;;5138781;27;20963;-57
2022/09/04 13:31:02;;;;;;;3.80;3.60;;;28.40;99.90;;;;;;5128805;27;20549;-55
2022/09/04 13:33:43;;;;;;;4.50;4.13;;;28.40;99.90;;;;;;5139317;27;20458;-56
2022/09/04 13:36:23;;;;;;;4.37;4.07;;;28.30;99.90;;;;;;5133885;27;20551;-55
2022/09/04 13:39:11;;;;;;;4.70;4.30;;;28.30;99.90;;;;;;5129351;27;20455;-57
2022/09/04 13:42:05;;;;;;;4.07;3.60;;;28.20;99.90;;;;;;5135288;27;20508;-56
2022/09/04 13:44:56;;;;;;;4.43;4.03;;;28.30;99.90;;;;;;5131812;27;20442;-53
2022/09/04 13:47:26;;;;;;;6.00;4.90;;;28.30;99.90;;;;;;5119694;27;20536;-55
2022/09/04 13:50:08;;;;;;;5.33;5.03;;;28.30;99.90;;;;;;5131209;27;20836;-54
2022/09/04 13:52:40;;;;;;;5.00;4.60;;;28.50;99.90;;;;;;5118582;28;20463;-57
2022/09/04 13:55:13;;;;;;;4.20;3.80;;;28.90;99.90;;;;;;5118917;27;20491;-55
2022/09/04 13:57:46;;;;;;;3.47;3.27;;;29.00;99.90;;;;;;5135885;27;20503;-54
2022/09/04 14:00:18;;;;;;;4.03;3.63;;;29.20;99.90;;;;;;5138767;27;20498;-54
2022/09/04 14:02:46;;;;;;;4.10;3.80;;;29.20;99.90;;;;;;5118805;27;20491;-55
2022/09/04 14:05:21;;;;;;;5.37;4.97;;;29.10;99.90;;;;;;5135289;27;20459;-55
2022/09/04 14:07:58;;;;;;;5.00;4.60;;;28.80;99.90;;;;;;5136010;27;20820;-57
2022/09/04 14:10:40;;;;;;;4.07;3.77;;;28.70;99.90;;;;;;5138276;27;20455;-53
2022/09/04 14:13:23;;;;;;;4.80;4.40;;;28.40;99.90;;;;;;5133801;27;20455;-57
2022/09/04 14:16:03;;;;;;;4.13;3.83;;;28.00;99.90;;;;;;5130178;27;20559;-56
2022/09/04 14:18:42;;;;;;;4.83;4.43;;;28.00;99.90;;;;;;5130908;27;20463;-53
2022/09/04 14:21:19;;;;;;;5.37;4.50;;;27.80;99.90;;;;;;5130254;27;20561;-57
2022/09/04 14:23:55;;;;;;;4.53;4.20;;;27.70;99.90;;;;;;5132342;27;20528;-51
2022/09/04 14:26:33;;;;;;;4.23;3.93;;;27.80;99.90;;;;;;5134918;27;20458;-56
2022/09/04 14:29:14;;;;;;;4.27;3.97;;;27.70;99.90;;;;;;5135602;27;20465;-57
2022/09/04 14:31:51;;;;;;;4.73;4.33;;;27.50;99.90;;;;;;5137719;27;20861;-56